Time;durP1;ratioP1;P1;durP2;ratioP2;P2;SDS_P1;SDS_P2;PMS_P1;PMS_P2;Temp;Humidity;BMP_temperature;BMP_pressure;BME280_temperature;BME280_humidity;BME280_pressure;Samples;Min_cycle;Max_cycle;Signal;HPM_P1;HPM_P2
2022/01/01 00:00:40;;;;;;;52.35;22.30;;;;;;;;;;5107038;28;20051;-76
2022/01/01 00:03:06;;;;;;;47.25;19.85;;;;;;;;;;5109821;28;20554;-75
2022/01/01 00:05:32;;;;;;;48.55;20.20;;;;;;;;;;5101401;28;20040;-76
2022/01/01 00:08:00;;;;;;;44.83;22.55;;;;;;;;;;5090595;28;20493;-77
2022/01/01 00:10:26;;;;;;;45.83;20.23;;;;;;;;;;5090237;28;20067;-77
2022/01/01 00:12:52;;;;;;;47.90;19.98;;;;;;;;;;5092307;28;20074;-75
2022/01/01 00:15:19;;;;;;;45.75;19.30;;;;;;;;;;5090054;28;20040;-76
2022/01/01 00:17:45;;;;;;;40.25;17.92;;;;;;;;;;5085173;28;20166;-76
2022/01/01 00:20:12;;;;;;;38.47;16.60;;;;;;;;;;5072951;28;20498;-77
2022/01/01 00:22:38;;;;;;;39.35;16.98;;;;;;;;;;5090251;28;20039;-75
2022/01/01 00:25:05;;;;;;;35.95;16.23;;;;;;;;;;5073380;28;20120;-74
2022/01/01 00:27:31;;;;;;;44.17;17.30;;;;;;;;;;5073137;28;20075;-76
2022/01/01 00:29:57;;;;;;;48.97;18.60;;;;;;;;;;5073170;28;20047;-75
2022/01/01 00:32:23;;;;;;;47.17;17.98;;;;;;;;;;5090276;28;20040;-75
2022/01/01 00:34:50;;;;;;;50.53;18.80;;;;;;;;;;5088303;28;20051;-77
2022/01/01 00:37:16;;;;;;;41.00;17.65;;;;;;;;;;5089662;28;20127;-75
2022/01/01 00:39:42;;;;;;;44.40;17.73;;;;;;;;;;5089579;28;20165;-77
2022/01/01 00:42:08;;;;;;;43.75;16.65;;;;;;;;;;5089862;28;20051;-75
2022/01/01 00:44:34;;;;;;;46.28;16.60;;;;;;;;;;5090090;28;20139;-75
2022/01/01 00:47:00;;;;;;;47.30;18.30;;;;;;;;;;5072596;28;20123;-74
2022/01/01 00:49:26;;;;;;;38.90;16.33;;;;;;;;;;5089735;28;20044;-75
2022/01/01 00:51:52;;;;;;;39.45;14.73;;;;;;;;;;5072708;28;20048;-74
2022/01/01 00:54:19;;;;;;;37.88;14.85;;;;;;;;;;5072974;28;20482;-74
2022/01/01 00:56:45;;;;;;;34.80;13.25;;;;;;;;;;5073107;28;20483;-76
2022/01/01 00:59:10;;;;;;;39.92;13.13;;;;;;;;;;5089758;28;20084;-74
2022/01/01 01:01:37;;;;;;;30.17;12.20;;;;;;;;;;5072524;28;20067;-75
2022/01/01 01:04:03;;;;;;;36.55;11.95;;;;;;;;;;5090064;28;20040;-75
2022/01/01 01:06:29;;;;;;;28.88;11.13;;;;;;;;;;5074368;28;20138;-76
2022/01/01 01:08:58;;;;;;;37.05;12.23;;;;;;;;;;5088971;28;20040;-76
2022/01/01 01:11:25;;;;;;;31.77;11.68;;;;;;;;;;5091131;28;20070;-75
2022/01/01 01:13:58;;;;;;;31.95;11.23;;;;;;;;;;5109123;28;20043;-74
2022/01/01 01:16:24;;;;;;;31.33;11.23;;;;;;;;;;5098713;28;20055;-76
2022/01/01 01:18:52;;;;;;;30.50;10.55;;;;;;;;;;5089082;28;20044;-75
2022/01/01 01:21:17;;;;;;;39.72;12.25;;;;;;;;;;5072002;28;20035;-75
2022/01/01 01:23:43;;;;;;;38.60;12.90;;;;;;;;;;5072201;28;20054;-74
2022/01/01 01:26:09;;;;;;;37.08;15.00;;;;;;;;;;5072351;28;20044;-75
2022/01/01 01:28:37;;;;;;;46.45;15.60;;;;;;;;;;5072409;28;20531;-75
2022/01/01 01:31:03;;;;;;;38.45;15.32;;;;;;;;;;5071857;28;20078;-75
2022/01/01 01:33:29;;;;;;;43.00;16.85;;;;;;;;;;5089082;28;20711;-75
2022/01/01 01:35:55;;;;;;;43.97;15.82;;;;;;;;;;5088747;28;20094;-74
2022/01/01 01:38:21;;;;;;;48.65;19.20;;;;;;;;;;5072959;28;20050;-74
2022/01/01 01:40:47;;;;;;;51.90;18.75;;;;;;;;;;5072696;28;20036;-74
2022/01/01 01:43:13;;;;;;;52.22;20.15;;;;;;;;;;5071727;28;20047;-74
2022/01/01 01:45:39;;;;;;;52.25;21.63;;;;;;;;;;5078468;28;20122;-76
2022/01/01 01:48:05;;;;;;;61.55;22.50;;;;;;;;;;5072843;28;20051;-74
2022/01/01 01:50:33;;;;;;;61.85;22.83;;;;;;;;;;5087977;28;20048;-74
2022/01/01 01:53:00;;;;;;;67.30;22.58;;;;;;;;;;5072832;28;20137;-77
2022/01/01 01:55:29;;;;;;;68.00;25.20;;;;;;;;;;5072543;28;20580;-75
2022/01/01 01:57:55;;;;;;;57.88;23.25;;;;;;;;;;5093535;28;20036;-75
2022/01/01 02:02:54;;;;;;;58.40;21.70;;;;;;;;;;5088198;28;20048;-75
2022/01/01 02:05:20;;;;;;;58.28;21.55;;;;;;;;;;5086970;28;20048;-74
2022/01/01 02:07:46;;;;;;;61.08;20.33;;;;;;;;;;5088672;28;20182;-74
2022/01/01 02:10:13;;;;;;;58.40;20.67;;;;;;;;;;5086889;28;20060;-75
2022/01/01 02:12:41;;;;;;;51.55;19.17;;;;;;;;;;5088049;28;20056;-76
2022/01/01 02:15:26;;;;;;;59.13;19.05;;;;;;;;;;5087468;28;20488;-74
2022/01/01 02:17:54;;;;;;;59.22;18.63;;;;;;;;;;5087782;28;20044;-76
2022/01/01 02:20:21;;;;;;;50.53;18.80;;;;;;;;;;5088453;28;20090;-74
2022/01/01 02:22:49;;;;;;;46.53;17.48;;;;;;;;;;5071148;28;20078;-75
2022/01/01 02:25:16;;;;;;;45.97;17.98;;;;;;;;;;5070216;28;20048;-75
2022/01/01 02:27:42;;;;;;;49.70;19.08;;;;;;;;;;5087960;28;20079;-74
2022/01/01 02:30:10;;;;;;;59.70;19.38;;;;;;;;;;5087286;28;20094;-75
2022/01/01 02:32:36;;;;;;;54.42;18.27;;;;;;;;;;5071346;28;20179;-76
2022/01/01 02:35:03;;;;;;;57.63;18.55;;;;;;;;;;5069258;28;20044;-75
2022/01/01 02:37:31;;;;;;;55.05;18.85;;;;;;;;;;5087658;28;20038;-77
2022/01/01 02:39:57;;;;;;;59.65;20.80;;;;;;;;;;5086731;28;20047;-75
2022/01/01 02:42:23;;;;;;;57.25;22.90;;;;;;;;;;5087469;28;20062;-76
2022/01/01 02:44:51;;;;;;;59.28;21.70;;;;;;;;;;5070514;28;20391;-77
2022/01/01 02:47:17;;;;;;;57.72;21.33;;;;;;;;;;5070630;28;20052;-76
2022/01/01 02:49:43;;;;;;;58.45;23.35;;;;;;;;;;5087142;28;20059;-75
2022/01/01 02:52:09;;;;;;;57.50;23.45;;;;;;;;;;5086761;28;20172;-75
2022/01/01 02:54:35;;;;;;;69.30;23.83;;;;;;;;;;5087604;28;20479;-76
2022/01/01 02:57:01;;;;;;;65.30;24.90;;;;;;;;;;5087147;28;20036;-76
2022/01/01 02:59:27;;;;;;;65.75;25.17;;;;;;;;;;5084651;28;20067;-77
2022/01/01 03:01:53;;;;;;;66.90;24.92;;;;;;;;;;5087660;28;20518;-76
2022/01/01 03:04:19;;;;;;;61.85;26.92;;;;;;;;;;5072933;28;20058;-76
2022/01/01 03:06:52;;;;;;;68.18;26.15;;;;;;;;;;5073395;28;20044;-73
2022/01/01 03:09:18;;;;;;;70.13;27.05;;;;;;;;;;5090668;28;20052;-76
2022/01/01 03:11:44;;;;;;;74.53;27.92;;;;;;;;;;5090896;28;20062;-76
2022/01/01 03:14:12;;;;;;;71.53;28.27;;;;;;;;;;5074445;28;20048;-75
2022/01/01 03:16:38;;;;;;;67.25;28.42;;;;;;;;;;5091275;28;20510;-75
2022/01/01 03:19:04;;;;;;;72.68;29.92;;;;;;;;;;5091223;28;20036;-74
2022/01/01 03:21:30;;;;;;;71.38;29.58;;;;;;;;;;5073670;28;20036;-77
2022/01/01 03:23:56;;;;;;;73.28;30.02;;;;;;;;;;5073412;28;20039;-73
2022/01/01 03:26:22;;;;;;;70.55;28.88;;;;;;;;;;5088067;28;20044;-76
2022/01/01 03:28:48;;;;;;;79.28;30.10;;;;;;;;;;5090229;28;20551;-77
2022/01/01 03:31:13;;;;;;;81.85;29.35;;;;;;;;;;5090612;28;20062;-76
2022/01/01 03:33:39;;;;;;;78.82;30.30;;;;;;;;;;5090014;28;20040;-76
2022/01/01 03:36:05;;;;;;;70.60;29.75;;;;;;;;;;5071455;28;20032;-77
2022/01/01 03:38:31;;;;;;;79.57;30.35;;;;;;;;;;5089861;28;20408;-77
2022/01/01 03:40:57;;;;;;;72.28;29.52;;;;;;;;;;5089967;28;20127;-78
2022/01/01 03:43:23;;;;;;;79.53;29.33;;;;;;;;;;5089152;28;20122;-76
2022/01/01 03:45:49;;;;;;;73.78;30.75;;;;;;;;;;5089530;28;20044;-73
2022/01/01 03:48:15;;;;;;;76.55;29.45;;;;;;;;;;5089769;28;20036;-75
2022/01/01 03:50:41;;;;;;;73.00;29.35;;;;;;;;;;5089946;28;20127;-77
2022/01/01 03:53:07;;;;;;;71.10;30.85;;;;;;;;;;5089595;28;20044;-76
2022/01/01 03:55:33;;;;;;;67.63;29.23;;;;;;;;;;5072841;28;20105;-76
2022/01/01 03:57:59;;;;;;;73.55;29.15;;;;;;;;;;5089571;28;20094;-77
2022/01/01 04:00:25;;;;;;;68.93;27.00;;;;;;;;;;5073579;28;20069;-75
2022/01/01 04:02:51;;;;;;;67.40;28.00;;;;;;;;;;5089587;28;20043;-76
2022/01/01 04:05:17;;;;;;;72.97;27.85;;;;;;;;;;5089845;28;20437;-77
2022/01/01 04:07:43;;;;;;;79.18;29.20;;;;;;;;;;5089900;28;20396;-76
2022/01/01 04:10:09;;;;;;;69.28;29.05;;;;;;;;;;5089244;28;20060;-76
2022/01/01 04:12:35;;;;;;;73.85;28.98;;;;;;;;;;5072701;28;20048;-77
2022/01/01 04:15:02;;;;;;;65.03;25.92;;;;;;;;;;5072268;28;20044;-75
2022/01/01 04:17:28;;;;;;;76.22;28.63;;;;;;;;;;5089324;28;20499;-76
2022/01/01 04:19:54;;;;;;;68.78;27.20;;;;;;;;;;5072846;28;20434;-76
2022/01/01 04:22:20;;;;;;;69.25;28.50;;;;;;;;;;5089580;28;20127;-75
2022/01/01 04:24:46;;;;;;;77.13;30.73;;;;;;;;;;5072626;28;20047;-76
2022/01/01 04:27:12;;;;;;;83.45;32.13;;;;;;;;;;5072483;28;20554;-77
2022/01/01 04:29:39;;;;;;;77.90;31.30;;;;;;;;;;5089960;28;20048;-74
2022/01/01 04:32:05;;;;;;;75.97;32.83;;;;;;;;;;5072552;28;20039;-76
2022/01/01 04:34:31;;;;;;;74.65;31.05;;;;;;;;;;5072125;28;20043;-75
2022/01/01 04:37:07;;;;;;;80.68;33.45;;;;;;;;;;5089559;28;20075;-73
2022/01/01 04:39:33;;;;;;;91.13;34.40;;;;;;;;;;5072459;28;20403;-76
2022/01/01 04:41:59;;;;;;;83.53;34.33;;;;;;;;;;5089185;28;20036;-76
2022/01/01 04:44:25;;;;;;;90.43;35.33;;;;;;;;;;5072327;28;20468;-75
2022/01/01 04:46:51;;;;;;;81.78;34.05;;;;;;;;;;5089369;28;20488;-75
2022/01/01 04:49:17;;;;;;;92.00;36.45;;;;;;;;;;5092091;28;20036;-73
2022/01/01 04:51:43;;;;;;;87.78;36.17;;;;;;;;;;5093319;28;20039;-74
2022/01/01 04:54:15;;;;;;;90.07;37.50;;;;;;;;;;5075624;28;20036;-77
2022/01/01 04:56:44;;;;;;;96.20;37.70;;;;;;;;;;5076012;28;20041;-74
2022/01/01 04:59:10;;;;;;;88.55;34.95;;;;;;;;;;5092878;28;20135;-75
2022/01/01 05:01:36;;;;;;;94.00;37.40;;;;;;;;;;5093589;28;20063;-76
2022/01/01 05:04:02;;;;;;;92.50;37.35;;;;;;;;;;5075906;28;20082;-75
2022/01/01 05:06:28;;;;;;;90.45;36.53;;;;;;;;;;5075894;28;20429;-76
2022/01/01 05:08:54;;;;;;;89.95;37.63;;;;;;;;;;5092632;28;20040;-75
2022/01/01 05:11:20;;;;;;;92.43;36.25;;;;;;;;;;5092736;28;20143;-75
2022/01/01 05:13:47;;;;;;;91.13;36.97;;;;;;;;;;5075522;28;20044;-76
2022/01/01 05:16:17;;;;;;;87.38;36.03;;;;;;;;;;5075679;28;20446;-76
2022/01/01 05:18:43;;;;;;;89.18;34.42;;;;;;;;;;5075612;28;20109;-76
2022/01/01 05:21:09;;;;;;;94.43;37.17;;;;;;;;;;5075360;28;20032;-77
2022/01/01 05:23:35;;;;;;;92.90;35.22;;;;;;;;;;5075612;28;20031;-76
2022/01/01 05:26:02;;;;;;;95.95;36.42;;;;;;;;;;5075768;28;20083;-76
2022/01/01 05:28:27;;;;;;;82.93;34.22;;;;;;;;;;5075191;28;20078;-77
2022/01/01 05:30:53;;;;;;;83.60;34.08;;;;;;;;;;5075451;28;20071;-76
2022/01/01 05:33:19;;;;;;;90.95;35.45;;;;;;;;;;5074972;28;20038;-75
2022/01/01 05:35:45;;;;;;;91.07;36.58;;;;;;;;;;5091607;28;20044;-73
2022/01/01 05:38:11;;;;;;;100.45;38.60;;;;;;;;;;5075162;28;20411;-75
2022/01/01 05:40:37;;;;;;;93.53;36.60;;;;;;;;;;5092350;28;20377;-75
2022/01/01 05:43:03;;;;;;;86.38;36.33;;;;;;;;;;5075449;28;20051;-76
2022/01/01 05:45:29;;;;;;;95.40;37.63;;;;;;;;;;5075488;28;20470;-76
2022/01/01 05:47:55;;;;;;;89.55;35.65;;;;;;;;;;5075409;28;20043;-76
2022/01/01 05:50:21;;;;;;;94.95;36.38;;;;;;;;;;5075178;28;20075;-76
2022/01/01 05:52:47;;;;;;;82.97;33.95;;;;;;;;;;5091839;28;20043;-76
2022/01/01 05:55:13;;;;;;;84.10;34.20;;;;;;;;;;5074676;28;20483;-76
2022/01/01 05:57:39;;;;;;;85.00;33.60;;;;;;;;;;5092583;28;20047;-75
2022/01/01 06:00:07;;;;;;;86.47;32.72;;;;;;;;;;5057836;28;20032;-77
2022/01/01 06:02:43;;;;;;;84.72;34.40;;;;;;;;;;5088992;28;20040;-75
2022/01/01 06:05:09;;;;;;;76.80;30.08;;;;;;;;;;5087486;28;20506;-75
2022/01/01 06:07:35;;;;;;;75.85;31.85;;;;;;;;;;5092036;28;20051;-75
2022/01/01 06:10:01;;;;;;;75.72;29.08;;;;;;;;;;5091673;28;20044;-76
2022/01/01 06:12:27;;;;;;;76.13;30.45;;;;;;;;;;5092189;28;20487;-78
2022/01/01 06:14:53;;;;;;;69.60;28.42;;;;;;;;;;5074443;28;20475;-75
2022/01/01 06:17:19;;;;;;;72.43;28.02;;;;;;;;;;5091252;28;20075;-73
2022/01/01 06:19:45;;;;;;;68.88;27.08;;;;;;;;;;5088002;28;20033;-76
2022/01/01 06:22:13;;;;;;;67.13;25.08;;;;;;;;;;5071390;28;20036;-74
2022/01/01 06:24:39;;;;;;;59.65;23.40;;;;;;;;;;5097226;28;20046;-76
2022/01/01 06:27:05;;;;;;;62.20;23.25;;;;;;;;;;5091856;28;20056;-74
2022/01/01 06:29:31;;;;;;;67.10;25.00;;;;;;;;;;5091143;28;20158;-76
2022/01/01 06:31:57;;;;;;;64.50;21.48;;;;;;;;;;5074598;28;20040;-75
2022/01/01 06:34:23;;;;;;;69.53;22.92;;;;;;;;;;5075338;28;20039;-76
2022/01/01 06:36:51;;;;;;;55.10;21.90;;;;;;;;;;5074844;28;20040;-76
2022/01/01 06:39:17;;;;;;;59.47;21.20;;;;;;;;;;5091350;28;20032;-74
2022/01/01 06:41:43;;;;;;;54.40;19.98;;;;;;;;;;5090930;28;20037;-76
2022/01/01 06:44:09;;;;;;;58.78;20.02;;;;;;;;;;5073768;28;20148;-76
2022/01/01 06:46:35;;;;;;;60.40;19.55;;;;;;;;;;5091299;28;20048;-78
2022/01/01 06:49:01;;;;;;;51.72;18.13;;;;;;;;;;5074371;28;20044;-76
2022/01/01 06:51:27;;;;;;;49.95;18.63;;;;;;;;;;5088050;28;20048;-76
2022/01/01 06:53:53;;;;;;;53.78;17.85;;;;;;;;;;5055361;28;20075;-75
2022/01/01 06:56:19;;;;;;;53.70;16.83;;;;;;;;;;5074558;28;20039;-76
2022/01/01 06:58:45;;;;;;;52.75;16.90;;;;;;;;;;5090535;28;20032;-77
2022/01/01 07:01:11;;;;;;;50.30;18.08;;;;;;;;;;5090678;28;20392;-76
2022/01/01 07:03:37;;;;;;;52.30;18.83;;;;;;;;;;5091112;28;20484;-77
2022/01/01 07:06:03;;;;;;;51.17;17.23;;;;;;;;;;5089304;28;20036;-76
2022/01/01 07:08:29;;;;;;;52.08;17.98;;;;;;;;;;5090757;28;20058;-76
2022/01/01 07:10:56;;;;;;;47.83;16.42;;;;;;;;;;5090197;28;20052;-77
2022/01/01 07:13:22;;;;;;;56.42;18.20;;;;;;;;;;5073636;28;20050;-76
2022/01/01 07:15:48;;;;;;;56.33;17.52;;;;;;;;;;5074008;28;20032;-77
2022/01/01 07:18:14;;;;;;;50.88;17.27;;;;;;;;;;5090644;28;20044;-76
2022/01/01 07:20:40;;;;;;;48.38;17.38;;;;;;;;;;5090254;28;20385;-77
2022/01/01 07:23:06;;;;;;;45.95;15.77;;;;;;;;;;5090795;28;20093;-75
2022/01/01 07:25:32;;;;;;;55.00;16.25;;;;;;;;;;5073191;28;20118;-77
2022/01/01 07:27:58;;;;;;;46.17;15.70;;;;;;;;;;5090809;28;20101;-75
2022/01/01 07:30:24;;;;;;;46.53;15.73;;;;;;;;;;5090477;28;20079;-76
2022/01/01 07:32:50;;;;;;;56.88;15.43;;;;;;;;;;5073945;28;20127;-76
2022/01/01 07:35:17;;;;;;;53.78;16.70;;;;;;;;;;5096844;28;20035;-77
2022/01/01 07:37:43;;;;;;;47.85;16.50;;;;;;;;;;5073594;28;20140;-76
2022/01/01 07:40:11;;;;;;;45.22;16.70;;;;;;;;;;5089488;28;20492;-75
2022/01/01 07:42:37;;;;;;;42.55;14.95;;;;;;;;;;5073642;28;20131;-76
2022/01/01 07:45:04;;;;;;;44.15;16.25;;;;;;;;;;5073827;28;20126;-74
2022/01/01 07:47:30;;;;;;;47.08;15.48;;;;;;;;;;5073400;28;20044;-76
2022/01/01 07:49:57;;;;;;;56.72;15.32;;;;;;;;;;5072914;28;20058;-76
2022/01/01 07:52:23;;;;;;;46.92;15.30;;;;;;;;;;5075308;28;20066;-76
2022/01/01 07:54:49;;;;;;;40.35;14.57;;;;;;;;;;5104039;28;20058;-76
2022/01/01 07:57:15;;;;;;;42.38;14.95;;;;;;;;;;5090351;28;20173;-75
2022/01/01 07:59:41;;;;;;;48.45;16.17;;;;;;;;;;5090114;28;20480;-75
2022/01/01 08:02:07;;;;;;;57.03;15.07;;;;;;;;;;5073250;28;20038;-76
2022/01/01 08:04:33;;;;;;;50.22;15.20;;;;;;;;;;5095451;28;20159;-75
2022/01/01 08:07:01;;;;;;;49.58;15.25;;;;;;;;;;5077666;28;20061;-78
2022/01/01 08:09:27;;;;;;;50.92;16.67;;;;;;;;;;5090258;28;20091;-75
2022/01/01 08:11:54;;;;;;;49.08;16.02;;;;;;;;;;5073062;28;20055;-75
2022/01/01 08:14:20;;;;;;;48.30;15.65;;;;;;;;;;5072947;28;20044;-75
2022/01/01 08:16:56;;;;;;;50.83;15.65;;;;;;;;;;5073126;28;20036;-76
2022/01/01 08:19:22;;;;;;;50.92;16.45;;;;;;;;;;5089666;28;20047;-76
2022/01/01 08:21:48;;;;;;;51.63;16.55;;;;;;;;;;5089413;28;20093;-76
2022/01/01 08:24:14;;;;;;;44.92;15.98;;;;;;;;;;5092976;28;20044;-75
2022/01/01 08:26:40;;;;;;;44.85;15.80;;;;;;;;;;5093697;28;20046;-75
2022/01/01 08:29:06;;;;;;;43.00;16.60;;;;;;;;;;5094006;28;20047;-78
2022/01/01 08:31:32;;;;;;;44.45;15.02;;;;;;;;;;5093622;28;20524;-76
2022/01/01 08:33:58;;;;;;;42.85;16.85;;;;;;;;;;5076802;28;20040;-76
2022/01/01 08:36:24;;;;;;;41.28;16.33;;;;;;;;;;5089609;28;20039;-76
2022/01/01 08:38:50;;;;;;;52.47;17.58;;;;;;;;;;5093572;28;20494;-75
2022/01/01 08:41:17;;;;;;;47.22;16.65;;;;;;;;;;5076241;28;20043;-74
2022/01/01 08:43:42;;;;;;;49.55;16.27;;;;;;;;;;5076617;28;20039;-76
2022/01/01 08:46:09;;;;;;;46.83;15.95;;;;;;;;;;5094027;28;20325;-76
2022/01/01 08:48:35;;;;;;;42.15;15.25;;;;;;;;;;5093360;28;20040;-76
2022/01/01 08:51:11;;;;;;;44.55;12.57;;;;;;;;;;5092990;28;20035;-79
2022/01/01 08:53:37;;;;;;;46.35;17.05;;;;;;;;;;5076677;28;20044;-77
2022/01/01 08:56:07;;;;;;;45.83;16.25;;;;;;;;;;5076298;28;20487;-76
2022/01/01 08:58:33;;;;;;;45.85;16.13;;;;;;;;;;5076535;28;20451;-77
2022/01/01 09:01:00;;;;;;;50.42;17.60;;;;;;;;;;5092948;28;20055;-78
2022/01/01 09:03:26;;;;;;;48.10;17.85;;;;;;;;;;5093473;28;20050;-76
2022/01/01 09:05:52;;;;;;;39.83;16.17;;;;;;;;;;5107231;28;20487;-76
2022/01/01 09:08:18;;;;;;;46.25;16.75;;;;;;;;;;5092776;28;20131;-77
2022/01/01 09:10:44;;;;;;;46.63;16.95;;;;;;;;;;5092497;28;20475;-76
2022/01/01 09:13:10;;;;;;;47.90;17.20;;;;;;;;;;5075775;28;20055;-76
2022/01/01 09:15:36;;;;;;;40.15;15.25;;;;;;;;;;5075503;28;20407;-77
2022/01/01 09:18:01;;;;;;;49.42;16.08;;;;;;;;;;5066894;28;20032;-76
2022/01/01 09:20:27;;;;;;;48.28;17.40;;;;;;;;;;5091066;28;20067;-78
2022/01/01 09:22:53;;;;;;;46.10;17.98;;;;;;;;;;5078022;28;20044;-76
2022/01/01 09:25:19;;;;;;;50.17;18.25;;;;;;;;;;5084623;28;20051;-76
2022/01/01 09:27:45;;;;;;;44.40;17.55;;;;;;;;;;5076122;28;20048;-76
2022/01/01 09:30:11;;;;;;;47.80;17.45;;;;;;;;;;5075139;28;20407;-78
2022/01/01 09:32:38;;;;;;;46.40;18.65;;;;;;;;;;5075470;28;20135;-76
2022/01/01 09:35:04;;;;;;;46.60;17.13;;;;;;;;;;5101806;28;20502;-77
2022/01/01 09:37:32;;;;;;;47.28;17.77;;;;;;;;;;5080227;28;20055;-77
2022/01/01 09:39:58;;;;;;;43.50;16.52;;;;;;;;;;5074931;28;20466;-76
2022/01/01 09:42:24;;;;;;;44.78;17.83;;;;;;;;;;5074221;28;20047;-76
2022/01/01 09:44:52;;;;;;;47.53;18.10;;;;;;;;;;5075105;28;20418;-77
2022/01/01 09:47:17;;;;;;;43.00;18.10;;;;;;;;;;5091979;28;20036;-77
2022/01/01 09:49:44;;;;;;;53.80;19.08;;;;;;;;;;5092409;28;20040;-78
2022/01/01 09:52:12;;;;;;;38.47;16.52;;;;;;;;;;5075113;28;20040;-77
2022/01/01 09:54:37;;;;;;;44.97;18.75;;;;;;;;;;5091892;28;20047;-77
2022/01/01 09:57:04;;;;;;;45.45;18.02;;;;;;;;;;5090552;28;20415;-78
2022/01/01 09:59:30;;;;;;;42.28;16.42;;;;;;;;;;5087927;28;20039;-77
2022/01/01 10:01:57;;;;;;;38.15;16.17;;;;;;;;;;5088138;28;20040;-76
2022/01/01 10:04:23;;;;;;;42.10;17.20;;;;;;;;;;5071962;28;20044;-75
2022/01/01 10:07:05;;;;;;;36.05;16.13;;;;;;;;;;5089373;28;20050;-76
2022/01/01 10:09:34;;;;;;;42.20;16.83;;;;;;;;;;5072342;28;20563;-77
2022/01/01 10:12:01;;;;;;;36.92;16.52;;;;;;;;;;5088394;28;20138;-76
2022/01/01 10:14:53;;;;;;;44.63;15.75;;;;;;;;;;5086077;28;20146;-76
2022/01/01 10:17:23;;;;;;;38.20;15.13;;;;;;;;;;5084150;28;20086;-77
2022/01/01 10:19:50;;;;;;;28.30;13.07;;;;;;;;;;5088278;28;20058;-77
2022/01/01 10:22:20;;;;;;;38.30;15.75;;;;;;;;;;5082846;28;20285;-78
2022/01/01 10:27:42;;;;;;;37.45;14.32;;;;;;;;;;5070369;28;20036;-77
2022/01/01 10:27:46;;;;;;;35.10;14.10;;;;;;;;;;5083832;28;20051;-77
2022/01/01 10:30:18;;;;;;;32.83;14.50;;;;;;;;;;5069269;28;20036;-76
2022/01/01 10:33:01;;;;;;;32.92;14.77;;;;;;;;;;5085506;28;20040;-77
2022/01/01 10:35:28;;;;;;;33.40;15.05;;;;;;;;;;5081017;28;20075;-76
2022/01/01 10:37:54;;;;;;;32.00;14.15;;;;;;;;;;5098046;28;20499;-76
2022/01/01 10:40:27;;;;;;;30.02;12.70;;;;;;;;;;5069923;28;20046;-76
2022/01/01 10:42:53;;;;;;;26.92;12.75;;;;;;;;;;5068424;28;20040;-76
2022/01/01 10:45:29;;;;;;;33.67;12.50;;;;;;;;;;5103670;28;20043;-77
2022/01/01 10:48:05;;;;;;;35.65;13.40;;;;;;;;;;5085211;28;20067;-76
2022/01/01 10:50:32;;;;;;;28.73;12.75;;;;;;;;;;5085273;28;20048;-77
2022/01/01 10:53:10;;;;;;;31.50;12.50;;;;;;;;;;5082286;28;20040;-76
2022/01/01 10:55:39;;;;;;;27.00;11.07;;;;;;;;;;5081171;28;20047;-77
2022/01/01 10:58:05;;;;;;;35.03;12.57;;;;;;;;;;5080530;28;20123;-77
2022/01/01 11:00:39;;;;;;;24.77;10.45;;;;;;;;;;5082754;28;20117;-76
2022/01/01 11:03:05;;;;;;;25.33;10.68;;;;;;;;;;5084829;28;20032;-78
2022/01/01 11:05:32;;;;;;;22.25;10.85;;;;;;;;;;5085226;28;20044;-76
2022/01/01 11:07:59;;;;;;;23.10;10.40;;;;;;;;;;5072993;28;20075;-76
2022/01/01 11:10:26;;;;;;;24.38;10.02;;;;;;;;;;5089816;28;20056;-76
2022/01/01 11:12:52;;;;;;;32.55;10.80;;;;;;;;;;5073498;28;20040;-75
2022/01/01 11:15:18;;;;;;;22.15;11.38;;;;;;;;;;5072857;28;20044;-77
2022/01/01 11:17:46;;;;;;;19.15;9.07;;;;;;;;;;5090392;28;20051;-76
2022/01/01 11:20:12;;;;;;;23.77;9.00;;;;;;;;;;5089799;28;20031;-75
2022/01/01 11:22:38;;;;;;;20.95;8.95;;;;;;;;;;5089615;28;20059;-78
2022/01/01 11:25:05;;;;;;;21.25;8.25;;;;;;;;;;5089440;28;20039;-77
2022/01/01 11:27:32;;;;;;;15.93;8.77;;;;;;;;;;5073212;28;20036;-76
2022/01/01 11:29:59;;;;;;;15.48;7.13;;;;;;;;;;5089831;28;20048;-76
2022/01/01 11:32:37;;;;;;;18.55;8.13;;;;;;;;;;5090380;28;20051;-76
2022/01/01 11:35:05;;;;;;;19.88;7.57;;;;;;;;;;5089981;28;20085;-77
2022/01/01 11:37:49;;;;;;;16.17;7.13;;;;;;;;;;5073084;28;20040;-78
2022/01/01 11:40:16;;;;;;;18.73;6.95;;;;;;;;;;5073020;28;20070;-75
2022/01/01 11:42:46;;;;;;;16.33;7.30;;;;;;;;;;5073832;28;20036;-76
2022/01/01 11:45:14;;;;;;;16.63;6.70;;;;;;;;;;5090031;28;20093;-78
2022/01/01 11:47:40;;;;;;;12.35;6.68;;;;;;;;;;5072443;28;20044;-77
2022/01/01 11:50:07;;;;;;;12.43;5.70;;;;;;;;;;5073531;28;20412;-78
2022/01/01 11:52:37;;;;;;;16.15;7.43;;;;;;;;;;5089767;28;20047;-77
2022/01/01 11:55:09;;;;;;;14.98;5.70;;;;;;;;;;5073516;28;20100;-77
2022/01/01 11:57:35;;;;;;;12.85;6.45;;;;;;;;;;5087675;28;20543;-77
2022/01/01 12:00:14;;;;;;;16.70;6.70;;;;;;;;;;5097338;28;20105;-77
2022/01/01 12:02:46;;;;;;;15.82;6.28;;;;;;;;;;5076714;28;20041;-76
2022/01/01 12:05:23;;;;;;;15.63;5.95;;;;;;;;;;5083762;28;20044;-77
2022/01/01 12:07:53;;;;;;;15.93;5.95;;;;;;;;;;5092029;28;20552;-78
2022/01/01 12:10:27;;;;;;;13.70;5.78;;;;;;;;;;5076459;28;20109;-76
2022/01/01 12:12:56;;;;;;;16.17;6.00;;;;;;;;;;5093869;28;20076;-76
2022/01/01 12:15:25;;;;;;;12.77;5.38;;;;;;;;;;5094171;28;20066;-78
2022/01/01 12:18:07;;;;;;;11.93;4.95;;;;;;;;;;5075988;28;20043;-77
2022/01/01 12:21:03;;;;;;;12.65;4.72;;;;;;;;;;5076676;28;20063;-76
2022/01/01 12:23:37;;;;;;;11.65;5.32;;;;;;;;;;5091998;28;20575;-78
2022/01/01 12:26:08;;;;;;;10.45;4.68;;;;;;;;;;5093315;28;20047;-77
2022/01/01 12:28:36;;;;;;;15.48;5.13;;;;;;;;;;5076602;28;20040;-77
2022/01/01 12:31:12;;;;;;;15.85;5.25;;;;;;;;;;5092810;28;20160;-77
2022/01/01 12:33:39;;;;;;;10.40;4.47;;;;;;;;;;5093141;28;20170;-79
2022/01/01 12:36:09;;;;;;;10.95;4.68;;;;;;;;;;5075872;28;20040;-79
2022/01/01 12:38:39;;;;;;;13.13;4.75;;;;;;;;;;5077144;28;20040;-76
2022/01/01 12:41:06;;;;;;;12.83;4.33;;;;;;;;;;5076735;28;20032;-77
2022/01/01 12:43:34;;;;;;;13.60;4.28;;;;;;;;;;5093653;28;20796;-79
2022/01/01 12:46:01;;;;;;;9.80;4.65;;;;;;;;;;5094363;28;20040;-79
2022/01/01 12:48:29;;;;;;;12.93;4.45;;;;;;;;;;5076891;28;20065;-78
2022/01/01 12:50:59;;;;;;;11.15;4.10;;;;;;;;;;5090195;28;20177;-79
2022/01/01 12:53:25;;;;;;;15.27;4.78;;;;;;;;;;5077301;28;20040;-78
2022/01/01 12:56:02;;;;;;;10.15;4.85;;;;;;;;;;5076996;28;20040;-78
2022/01/01 12:58:36;;;;;;;12.30;4.38;;;;;;;;;;5094452;28;20488;-78
2022/01/01 13:01:21;;;;;;;12.32;4.78;;;;;;;;;;5093221;28;20480;-76
2022/01/01 13:03:48;;;;;;;15.15;4.72;;;;;;;;;;5092606;28;20043;-78
2022/01/01 13:06:20;;;;;;;12.15;6.47;;;;;;;;;;5093265;28;20115;-80
2022/01/01 13:08:46;;;;;;;11.60;4.55;;;;;;;;;;5074854;28;20361;-77
2022/01/01 13:11:13;;;;;;;10.93;4.72;;;;;;;;;;5075774;28;20067;-77
2022/01/01 13:13:39;;;;;;;11.77;4.50;;;;;;;;;;5091999;28;20514;-77
2022/01/01 13:16:06;;;;;;;14.43;5.28;;;;;;;;;;5056552;28;20041;-77
2022/01/01 13:18:32;;;;;;;12.27;5.13;;;;;;;;;;5073695;28;20040;-80
2022/01/01 13:20:58;;;;;;;14.25;4.70;;;;;;;;;;5073660;28;20033;-75
2022/01/01 13:23:24;;;;;;;12.98;4.82;;;;;;;;;;5073379;28;20048;-77
2022/01/01 13:25:51;;;;;;;16.90;5.10;;;;;;;;;;5073164;28;20076;-77
2022/01/01 13:28:17;;;;;;;9.35;4.85;;;;;;;;;;5073651;28;20494;-76
2022/01/01 13:30:44;;;;;;;11.85;4.78;;;;;;;;;;5073333;28;20044;-77
2022/01/01 13:33:10;;;;;;;10.50;4.60;;;;;;;;;;5072748;28;20047;-76
2022/01/01 13:35:36;;;;;;;13.15;5.50;;;;;;;;;;5102996;28;20082;-77
2022/01/01 13:38:04;;;;;;;10.65;4.95;;;;;;;;;;5095983;28;20040;-76
2022/01/01 13:40:30;;;;;;;12.98;5.18;;;;;;;;;;5113162;28;20109;-78
2022/01/01 13:43:08;;;;;;;12.25;4.68;;;;;;;;;;5108947;28;20082;-77
2022/01/01 13:45:34;;;;;;;11.88;4.90;;;;;;;;;;5109794;28;20491;-77
2022/01/01 13:48:10;;;;;;;12.48;5.22;;;;;;;;;;5108950;28;20050;-76
2022/01/01 13:50:40;;;;;;;10.82;4.80;;;;;;;;;;5091876;28;20441;-78
2022/01/01 13:53:07;;;;;;;8.80;4.23;;;;;;;;;;5109217;28;20472;-77
2022/01/01 13:55:34;;;;;;;11.27;5.13;;;;;;;;;;5108970;28;20293;-76
2022/01/01 13:58:02;;;;;;;10.98;4.47;;;;;;;;;;5108413;28;20047;-76
2022/01/01 14:00:29;;;;;;;13.90;4.90;;;;;;;;;;5091778;28;20351;-76
2022/01/01 14:02:55;;;;;;;11.75;5.32;;;;;;;;;;5108910;28;20135;-76
2022/01/01 14:05:23;;;;;;;11.20;5.97;;;;;;;;;;5093709;28;20474;-77
2022/01/01 14:07:49;;;;;;;17.13;5.28;;;;;;;;;;5071567;28;20040;-76
2022/01/01 14:10:17;;;;;;;11.68;5.53;;;;;;;;;;5075377;28;20106;-77
2022/01/01 14:12:52;;;;;;;13.05;5.05;;;;;;;;;;5077018;28;20476;-78
2022/01/01 14:15:22;;;;;;;9.57;4.88;;;;;;;;;;5061314;28;20036;-77
2022/01/01 14:17:57;;;;;;;18.23;5.28;;;;;;;;;;5077452;28;20044;-76
2022/01/01 14:20:34;;;;;;;9.25;5.10;;;;;;;;;;5084209;28;20430;-76
2022/01/01 14:23:01;;;;;;;10.90;4.90;;;;;;;;;;5077576;28;20059;-76
2022/01/01 14:25:28;;;;;;;11.18;5.80;;;;;;;;;;5077592;28;20574;-76